createdAt,value
2022-08-31T00:01:17.400Z,16.97
2022-08-31T00:04:03.809Z,16.97
2022-08-31T00:06:35.987Z,16.99
2022-08-31T00:09:07.433Z,16.98
2022-08-31T00:11:38.297Z,16.97
2022-08-31T00:14:13.409Z,16.98
2022-08-31T00:16:46.748Z,16.98
2022-08-31T00:19:15.926Z,16.97
2022-08-31T00:21:45.889Z,16.97
2022-08-31T00:24:16.657Z,16.96
2022-08-31T00:26:51.717Z,16.96
2022-08-31T00:29:28.351Z,16.96
2022-08-31T00:32:01.440Z,16.95
2022-08-31T00:34:30.394Z,16.94
2022-08-31T00:37:01.669Z,16.94
2022-08-31T00:39:31.887Z,16.93
2022-08-31T00:42:02.841Z,16.94
2022-08-31T00:44:32.231Z,16.93
2022-08-31T00:47:01.955Z,16.92
2022-08-31T00:49:35.361Z,16.88
2022-08-31T00:52:19.814Z,16.87
2022-08-31T00:54:57.051Z,16.86
2022-08-31T00:57:34.424Z,16.84
2022-08-31T01:00:09.816Z,16.83
2022-08-31T01:02:40.627Z,16.83
2022-08-31T01:05:12.895Z,16.82
2022-08-31T01:07:45.547Z,16.83
2022-08-31T01:10:17.903Z,16.83
2022-08-31T01:12:51.778Z,16.82
2022-08-31T01:15:23.801Z,16.80
2022-08-31T01:17:56.005Z,16.79
2022-08-31T01:20:48.703Z,16.79
2022-08-31T01:23:19.994Z,16.77
2022-08-31T01:25:53.159Z,16.76
2022-08-31T01:28:24.875Z,16.73
2022-08-31T01:31:02.101Z,16.72
2022-08-31T01:33:36.417Z,16.71
2022-08-31T01:36:13.138Z,16.71
2022-08-31T01:38:52.981Z,16.73
2022-08-31T01:41:24.272Z,16.72
2022-08-31T01:43:56.001Z,16.72
2022-08-31T01:46:26.722Z,16.74
2022-08-31T01:48:57.731Z,16.73
2022-08-31T01:51:29.366Z,16.73
2022-08-31T01:54:01.182Z,16.72
2022-08-31T01:56:37.765Z,16.72
2022-08-31T01:59:11.913Z,16.72
2022-08-31T02:02:15.292Z,16.74
2022-08-31T02:04:45.422Z,16.74
2022-08-31T02:07:15.597Z,16.73
2022-08-31T02:09:45.265Z,16.73
2022-08-31T02:12:15.332Z,16.72
2022-08-31T02:14:45.163Z,16.71
2022-08-31T02:17:15.224Z,16.72
2022-08-31T02:19:44.982Z,16.72
2022-08-31T02:22:18.753Z,16.73
2022-08-31T02:24:51.437Z,16.73
2022-08-31T02:27:22.461Z,16.74
2022-08-31T02:29:53.864Z,16.73
2022-08-31T02:32:25.128Z,16.72
2022-08-31T02:34:56.632Z,16.70
2022-08-31T02:37:27.742Z,16.68
2022-08-31T02:40:00.065Z,16.68
2022-08-31T02:42:52.106Z,16.65
2022-08-31T02:45:20.933Z,16.62
2022-08-31T02:47:50.710Z,16.60
2022-08-31T02:50:47.131Z,16.59
2022-08-31T02:53:20.249Z,16.57
2022-08-31T02:55:50.762Z,16.56
2022-08-31T02:58:24.079Z,16.56
2022-08-31T03:00:55.263Z,16.56
2022-08-31T03:03:25.993Z,16.55
2022-08-31T03:05:56.354Z,16.55
2022-08-31T03:08:26.481Z,16.54
2022-08-31T03:10:57.355Z,16.54
2022-08-31T03:13:27.959Z,16.54
2022-08-31T03:15:58.628Z,16.54
2022-08-31T03:18:29.177Z,16.54
2022-08-31T03:20:58.609Z,16.54
2022-08-31T03:23:29.096Z,16.53
2022-08-31T03:25:58.776Z,16.52
2022-08-31T03:28:28.002Z,16.52
2022-08-31T03:31:13.511Z,16.50
2022-08-31T03:33:43.288Z,16.50
2022-08-31T03:36:16.000Z,16.49
2022-08-31T03:38:46.499Z,16.47
2022-08-31T03:41:19.161Z,16.46
2022-08-31T03:43:50.772Z,16.46
2022-08-31T03:46:21.272Z,16.46
2022-08-31T03:48:51.122Z,16.45
2022-08-31T03:51:21.522Z,16.44
2022-08-31T03:53:51.481Z,16.43
2022-08-31T03:56:21.735Z,16.43
2022-08-31T03:58:52.116Z,16.44
2022-08-31T04:01:59.513Z,16.43
2022-08-31T04:04:52.399Z,16.43
2022-08-31T04:07:42.306Z,16.43
2022-08-31T04:10:42.791Z,16.43
2022-08-31T04:13:47.541Z,16.43
2022-08-31T04:16:39.028Z,16.44
2022-08-31T04:19:09.268Z,16.44
2022-08-31T04:21:44.663Z,16.47
2022-08-31T04:24:14.323Z,16.50
2022-08-31T04:26:44.229Z,16.53
2022-08-31T04:29:14.154Z,16.56
2022-08-31T04:31:44.875Z,16.56
2022-08-31T04:34:14.385Z,16.57
2022-08-31T04:36:45.789Z,16.59
2022-08-31T04:39:15.148Z,16.62
2022-08-31T04:41:46.487Z,16.64
2022-08-31T04:44:19.656Z,16.69
2022-08-31T04:46:49.918Z,16.72
2022-08-31T04:49:19.309Z,16.75
2022-08-31T04:51:48.499Z,16.80
2022-08-31T04:54:17.811Z,16.84
2022-08-31T04:56:47.316Z,16.88
2022-08-31T04:59:26.541Z,16.92
2022-08-31T05:02:19.787Z,16.97
2022-08-31T05:04:55.143Z,17.03
2022-08-31T05:07:24.750Z,17.06
2022-08-31T05:09:56.214Z,17.11
2022-08-31T05:12:25.186Z,17.15
2022-08-31T05:14:54.598Z,17.19
2022-08-31T05:17:25.527Z,17.25
2022-08-31T05:19:54.523Z,17.30
2022-08-31T05:22:23.409Z,17.37
2022-08-31T05:24:53.752Z,17.40
2022-08-31T05:27:22.829Z,17.41
2022-08-31T05:29:51.723Z,17.43
2022-08-31T05:32:39.307Z,17.45
2022-08-31T05:35:08.958Z,17.49
2022-08-31T05:37:38.290Z,17.54
2022-08-31T05:40:08.740Z,17.59
2022-08-31T05:42:37.780Z,17.63
2022-08-31T05:45:07.394Z,17.68
2022-08-31T05:47:37.197Z,17.73
2022-08-31T05:50:08.421Z,17.77
2022-08-31T05:52:38.565Z,17.79
2022-08-31T05:55:07.640Z,17.80
2022-08-31T05:57:37.361Z,17.81
2022-08-31T06:00:10.962Z,17.85
2022-08-31T06:02:45.180Z,17.88
2022-08-31T06:05:15.455Z,17.88
2022-08-31T06:07:48.991Z,17.92
2022-08-31T06:10:19.601Z,18.00
2022-08-31T06:12:49.453Z,18.09
2022-08-31T06:15:19.674Z,18.16
2022-08-31T06:17:48.566Z,18.21
2022-08-31T06:20:18.529Z,18.30
2022-08-31T06:22:49.818Z,18.42
2022-08-31T06:25:30.180Z,18.53
2022-08-31T06:27:59.991Z,18.62
2022-08-31T06:30:28.970Z,18.69
2022-08-31T06:32:58.987Z,18.75
2022-08-31T06:35:40.753Z,18.82
2022-08-31T06:38:28.020Z,18.86
2022-08-31T06:41:35.718Z,18.92
2022-08-31T06:44:30.614Z,18.96
2022-08-31T06:47:11.176Z,19.03
2022-08-31T06:49:42.220Z,19.10
2022-08-31T06:52:11.415Z,19.14
2022-08-31T06:54:42.969Z,19.16
2022-08-31T06:57:50.062Z,19.22
2022-08-31T07:00:37.276Z,19.29
2022-08-31T07:03:33.611Z,19.31
2022-08-31T07:06:15.739Z,19.33
2022-08-31T07:08:47.574Z,19.38
2022-08-31T07:11:28.312Z,19.52
2022-08-31T07:13:58.150Z,19.70
2022-08-31T07:16:29.330Z,19.89
2022-08-31T07:19:03.799Z,20.05
2022-08-31T07:21:42.346Z,20.15
2022-08-31T07:24:14.399Z,20.46
2022-08-31T07:26:46.974Z,20.87
2022-08-31T07:29:21.426Z,21.47
2022-08-31T07:31:50.896Z,21.91
2022-08-31T07:34:28.798Z,22.20
2022-08-31T07:37:33.219Z,22.74
2022-08-31T07:40:21.924Z,23.23
2022-08-31T07:42:51.073Z,23.75
2022-08-31T07:45:23.146Z,24.25
2022-08-31T07:47:56.476Z,24.61
2022-08-31T07:50:31.165Z,24.72
2022-08-31T07:53:22.441Z,24.83
2022-08-31T07:56:03.138Z,24.94
2022-08-31T07:58:48.107Z,25.26
2022-08-31T08:01:18.805Z,25.65
2022-08-31T08:03:48.139Z,26.14
2022-08-31T08:06:36.060Z,26.60
2022-08-31T08:09:36.301Z,26.65
2022-08-31T08:12:10.618Z,26.82
2022-08-31T08:14:45.754Z,26.77
2022-08-31T08:17:40.761Z,27.31
2022-08-31T08:20:13.785Z,27.27
2022-08-31T08:22:54.991Z,27.32
2022-08-31T08:25:36.106Z,27.23
2022-08-31T08:31:08.000Z,27.70
2022-08-31T08:33:37.487Z,27.98
2022-08-31T08:36:08.463Z,27.69
2022-08-31T08:38:44.054Z,27.72
2022-08-31T08:41:19.312Z,27.87
2022-08-31T08:43:52.689Z,28.27
2022-08-31T08:46:49.398Z,27.94
2022-08-31T08:49:40.532Z,27.94
2022-08-31T08:52:23.174Z,28.76
2022-08-31T08:54:55.023Z,29.52
2022-08-31T08:57:33.552Z,29.60
2022-08-31T09:00:15.036Z,29.94
2022-08-31T09:03:04.052Z,30.28
2022-08-31T09:06:00.025Z,30.51
2022-08-31T09:09:09.488Z,30.63
2022-08-31T09:12:00.946Z,30.42
2022-08-31T09:14:59.456Z,30.21
2022-08-31T09:17:55.839Z,29.36
2022-08-31T09:20:28.653Z,29.18
2022-08-31T09:22:59.016Z,28.62
2022-08-31T09:25:35.073Z,28.57
2022-08-31T09:28:15.435Z,28.68
2022-08-31T09:30:44.248Z,28.90
2022-08-31T09:33:22.555Z,29.10
2022-08-31T09:35:58.482Z,29.33
2022-08-31T09:38:40.510Z,29.68
2022-08-31T09:41:31.490Z,29.98
2022-08-31T09:44:34.294Z,29.82
2022-08-31T09:47:42.493Z,30.52
2022-08-31T09:50:11.586Z,30.88
2022-08-31T09:53:01.162Z,30.95
2022-08-31T09:55:29.751Z,31.10
2022-08-31T09:58:14.709Z,31.15
2022-08-31T10:00:47.297Z,30.51
2022-08-31T10:03:28.725Z,30.09
2022-08-31T10:05:57.872Z,29.91
2022-08-31T10:08:43.252Z,29.32
2022-08-31T10:11:18.489Z,29.25
2022-08-31T10:13:58.126Z,29.66
2022-08-31T10:16:42.969Z,29.78
2022-08-31T10:19:44.346Z,30.16
2022-08-31T10:22:25.827Z,30.67
2022-08-31T10:25:21.875Z,31.04
2022-08-31T10:28:19.011Z,31.33
2022-08-31T10:30:55.225Z,31.34
2022-08-31T10:33:49.363Z,31.92
2022-08-31T10:36:19.073Z,32.33
2022-08-31T10:38:51.340Z,32.20
2022-08-31T10:41:31.180Z,31.63
2022-08-31T10:44:46.066Z,31.91
2022-08-31T10:47:22.904Z,31.73
2022-08-31T10:50:04.834Z,32.53
2022-08-31T10:53:02.612Z,32.70
2022-08-31T10:55:51.754Z,33.27
2022-08-31T10:58:37.035Z,33.38
2022-08-31T11:01:21.443Z,33.21
2022-08-31T11:04:04.754Z,32.89
2022-08-31T11:06:48.649Z,32.08
2022-08-31T11:09:26.554Z,31.27
2022-08-31T11:12:09.985Z,31.44
2022-08-31T11:15:24.444Z,31.95
2022-08-31T11:18:16.958Z,31.95
2022-08-31T11:21:27.863Z,32.25
2022-08-31T11:24:30.094Z,32.61
2022-08-31T11:27:21.760Z,32.36
2022-08-31T11:30:03.201Z,32.12
2022-08-31T11:33:00.705Z,32.25
2022-08-31T11:35:57.755Z,33.22
2022-08-31T11:38:48.263Z,32.73
2022-08-31T11:41:39.680Z,32.05
2022-08-31T11:44:10.917Z,31.82
2022-08-31T11:46:43.472Z,31.81
2022-08-31T11:49:38.194Z,31.40
2022-08-31T11:52:36.578Z,30.98
2022-08-31T11:55:14.900Z,30.88
2022-08-31T11:58:10.235Z,30.95
2022-08-31T12:00:52.069Z,30.48
2022-08-31T12:03:39.105Z,30.73
2022-08-31T12:06:12.092Z,31.09
2022-08-31T12:09:08.935Z,30.97
2022-08-31T12:12:04.245Z,30.40
2022-08-31T12:14:56.991Z,29.27
2022-08-31T12:18:05.310Z,29.03
2022-08-31T12:21:21.308Z,28.99
2022-08-31T12:24:06.955Z,28.35
2022-08-31T12:26:49.600Z,27.79
2022-08-31T12:29:21.460Z,27.15
2022-08-31T12:32:11.296Z,26.70
2022-08-31T12:34:55.392Z,26.13
2022-08-31T12:37:35.131Z,25.62
2022-08-31T12:40:08.704Z,25.10
2022-08-31T12:42:48.177Z,24.57
2022-08-31T12:45:18.523Z,23.90
2022-08-31T12:48:11.965Z,23.47
2022-08-31T12:51:02.257Z,22.97
2022-08-31T12:53:59.407Z,22.66
2022-08-31T12:56:54.510Z,22.40
2022-08-31T13:00:00.423Z,22.20
2022-08-31T13:02:35.871Z,21.96
2022-08-31T13:05:34.908Z,21.73
2022-08-31T13:08:23.767Z,21.40
2022-08-31T13:10:52.967Z,21.28
2022-08-31T13:13:26.563Z,21.14
2022-08-31T13:16:01.373Z,20.99
2022-08-31T13:18:31.292Z,20.93
2022-08-31T13:21:06.113Z,20.80
2022-08-31T13:23:40.231Z,20.76
2022-08-31T13:26:23.145Z,20.72
2022-08-31T13:28:55.542Z,20.64
2022-08-31T13:31:29.567Z,20.59
2022-08-31T13:34:04.246Z,20.64
2022-08-31T13:36:52.040Z,20.72
2022-08-31T13:39:27.708Z,20.82
2022-08-31T13:42:07.411Z,20.94
2022-08-31T13:44:40.148Z,21.07
2022-08-31T13:47:27.727Z,21.20
2022-08-31T13:50:13.323Z,21.33
2022-08-31T13:53:09.529Z,21.39
2022-08-31T13:55:43.961Z,21.59
2022-08-31T13:58:32.993Z,21.78
2022-08-31T14:01:26.960Z,21.95
2022-08-31T14:03:59.237Z,22.19
2022-08-31T14:06:35.430Z,22.25
2022-08-31T14:09:17.466Z,22.24
2022-08-31T14:12:04.871Z,22.27
2022-08-31T14:14:43.667Z,22.21
2022-08-31T14:17:17.074Z,22.14
2022-08-31T14:19:46.377Z,22.19
2022-08-31T14:22:30.100Z,22.21
2022-08-31T14:25:01.041Z,22.26
2022-08-31T14:27:30.756Z,22.23
2022-08-31T14:30:00.494Z,22.26
2022-08-31T14:32:29.659Z,22.31
2022-08-31T14:34:59.472Z,22.35
2022-08-31T14:37:30.621Z,22.43
2022-08-31T14:40:07.390Z,22.45
2022-08-31T14:42:39.022Z,22.42
2022-08-31T14:45:18.882Z,22.36
2022-08-31T14:47:52.663Z,22.27
2022-08-31T14:50:25.042Z,22.21
2022-08-31T14:52:55.742Z,22.15
2022-08-31T14:55:27.253Z,22.08
2022-08-31T14:58:05.440Z,22.03
2022-08-31T15:00:40.702Z,21.94
2022-08-31T15:03:12.560Z,21.86
2022-08-31T15:05:42.846Z,21.75
2022-08-31T15:08:11.873Z,21.79
2022-08-31T15:10:41.690Z,21.72
2022-08-31T15:13:11.196Z,21.69
2022-08-31T15:15:39.672Z,21.70
2022-08-31T15:18:10.411Z,21.78
2022-08-31T15:20:40.310Z,21.84
2022-08-31T15:23:09.829Z,21.87
2022-08-31T15:25:39.641Z,21.79
2022-08-31T15:28:09.247Z,21.65
2022-08-31T15:30:40.083Z,21.53
2022-08-31T15:33:10.504Z,21.43
2022-08-31T15:35:42.163Z,21.33
2022-08-31T15:38:12.007Z,21.12
2022-08-31T15:40:41.190Z,20.98
2022-08-31T15:43:15.818Z,20.86
2022-08-31T15:45:45.168Z,20.75
2022-08-31T15:48:32.725Z,20.73
2022-08-31T15:51:02.662Z,20.74
2022-08-31T15:53:32.474Z,20.74
2022-08-31T15:56:07.058Z,20.75
2022-08-31T15:58:39.353Z,20.75
2022-08-31T16:01:14.485Z,20.72
2022-08-31T16:03:50.192Z,20.69
2022-08-31T16:06:27.400Z,20.64
2022-08-31T16:08:56.414Z,20.60
2022-08-31T16:11:31.513Z,20.60
2022-08-31T16:14:00.928Z,20.52
2022-08-31T16:16:35.120Z,20.42
2022-08-31T16:19:05.706Z,20.32
2022-08-31T16:21:37.650Z,20.25
2022-08-31T16:24:09.883Z,20.19
2022-08-31T16:26:41.973Z,20.13
2022-08-31T16:29:14.677Z,20.12
2022-08-31T16:31:45.656Z,20.08
2022-08-31T16:34:15.011Z,19.99
2022-08-31T16:36:44.414Z,19.93
2022-08-31T16:39:12.919Z,19.86
2022-08-31T16:41:41.582Z,19.78
2022-08-31T16:44:19.535Z,19.72
2022-08-31T16:46:48.999Z,19.63
2022-08-31T16:49:36.936Z,19.55
2022-08-31T16:52:21.669Z,19.52
2022-08-31T16:54:52.623Z,19.46
2022-08-31T16:57:26.523Z,19.39
2022-08-31T16:59:58.054Z,19.28
2022-08-31T17:02:28.025Z,19.21
2022-08-31T17:05:00.987Z,19.13
2022-08-31T17:07:29.568Z,19.05
2022-08-31T17:10:04.296Z,19.03
2022-08-31T17:12:33.058Z,18.99
2022-08-31T17:15:04.636Z,18.99
2022-08-31T17:17:33.843Z,18.99
2022-08-31T17:20:04.143Z,18.98
2022-08-31T17:22:35.611Z,18.93
2022-08-31T17:25:10.939Z,18.85
2022-08-31T17:27:41.039Z,18.72
2022-08-31T17:30:10.072Z,18.59
2022-08-31T17:32:44.376Z,18.49
2022-08-31T17:35:19.321Z,18.37
2022-08-31T17:37:51.174Z,18.26
2022-08-31T17:40:20.214Z,18.17
2022-08-31T17:42:50.077Z,18.10
2022-08-31T17:45:19.479Z,18.00
2022-08-31T17:47:48.267Z,17.92
2022-08-31T17:50:21.560Z,17.82
2022-08-31T17:52:50.351Z,17.72
2022-08-31T17:55:19.419Z,17.67
2022-08-31T17:57:49.360Z,17.61
2022-08-31T18:00:18.350Z,17.47
2022-08-31T18:02:48.789Z,17.36
2022-08-31T18:05:18.740Z,17.30
2022-08-31T18:07:50.459Z,17.24
2022-08-31T18:10:20.467Z,17.18
2022-08-31T18:12:49.047Z,17.13
2022-08-31T18:15:19.202Z,17.08
2022-08-31T18:17:50.725Z,17.05
2022-08-31T18:20:19.513Z,16.98
2022-08-31T18:22:52.398Z,16.91
2022-08-31T18:25:22.053Z,16.85
2022-08-31T18:27:51.549Z,16.81
2022-08-31T18:30:21.257Z,16.78
2022-08-31T18:32:51.644Z,16.74
2022-08-31T18:35:20.326Z,16.71
2022-08-31T18:37:48.910Z,16.68
2022-08-31T18:40:36.366Z,16.65
2022-08-31T18:43:23.456Z,16.65
2022-08-31T18:45:52.251Z,16.68
2022-08-31T18:48:26.298Z,16.71
2022-08-31T18:50:59.385Z,16.74
2022-08-31T18:53:32.944Z,16.75
2022-08-31T18:56:10.578Z,16.74
2022-08-31T18:58:40.281Z,16.71
2022-08-31T19:01:13.560Z,16.68
2022-08-31T19:03:43.256Z,16.63
2022-08-31T19:06:23.798Z,16.59
2022-08-31T19:08:52.784Z,16.55
2022-08-31T19:11:23.596Z,16.52
2022-08-31T19:13:53.556Z,16.50
2022-08-31T19:16:28.704Z,16.49
2022-08-31T19:18:59.093Z,16.45
2022-08-31T19:21:32.003Z,16.42
2022-08-31T19:24:05.124Z,16.39
2022-08-31T19:26:40.844Z,16.37
2022-08-31T19:29:14.446Z,16.37
2022-08-31T19:31:46.094Z,16.37
2022-08-31T19:34:22.673Z,16.37
2022-08-31T19:36:54.626Z,16.35
2022-08-31T19:39:27.390Z,16.35
2022-08-31T19:42:03.489Z,16.34
2022-08-31T19:47:25.697Z,16.34
2022-08-31T19:49:54.621Z,16.33
2022-08-31T19:52:25.507Z,16.32
2022-08-31T19:54:54.342Z,16.29
2022-08-31T19:57:23.233Z,16.26
2022-08-31T19:59:52.029Z,16.21
2022-08-31T20:02:20.696Z,16.19
2022-08-31T20:04:50.522Z,16.19
2022-08-31T20:07:19.511Z,16.18
2022-08-31T20:09:48.197Z,16.17
2022-08-31T20:12:19.234Z,16.14
2022-08-31T20:14:48.640Z,16.11
2022-08-31T20:17:19.062Z,16.09
2022-08-31T20:19:50.003Z,16.06
2022-08-31T20:22:23.915Z,16.03
2022-08-31T20:24:58.639Z,15.99
2022-08-31T20:27:28.456Z,15.96
2022-08-31T20:29:59.083Z,15.93
2022-08-31T20:32:29.304Z,15.92
2022-08-31T20:34:58.507Z,15.92
2022-08-31T20:37:27.397Z,15.94
2022-08-31T20:39:57.309Z,15.94
2022-08-31T20:42:27.028Z,15.94
2022-08-31T20:44:56.419Z,15.93
2022-08-31T20:47:43.436Z,15.91
2022-08-31T20:50:12.428Z,15.88
2022-08-31T20:52:41.420Z,15.83
2022-08-31T20:55:12.976Z,15.78
2022-08-31T20:57:42.179Z,15.75
2022-08-31T21:00:11.372Z,15.74
2022-08-31T21:02:40.226Z,15.73
2022-08-31T21:08:00.695Z,15.69
2022-08-31T21:10:37.483Z,15.66
2022-08-31T21:13:13.254Z,15.63
2022-08-31T21:15:45.558Z,15.61
2022-08-31T21:18:19.370Z,15.56
2022-08-31T21:20:48.919Z,15.54
2022-08-31T21:23:17.683Z,15.53
2022-08-31T21:25:47.276Z,15.53
2022-08-31T21:28:18.236Z,15.51
2022-08-31T21:30:49.792Z,15.49
2022-08-31T21:33:19.524Z,15.45
2022-08-31T21:35:48.477Z,15.42
2022-08-31T21:38:18.899Z,15.40
2022-08-31T21:40:51.417Z,15.39
2022-08-31T21:43:20.495Z,15.38
2022-08-31T21:46:00.282Z,15.37
2022-08-31T21:48:31.230Z,15.37
2022-08-31T21:51:16.865Z,15.38
2022-08-31T21:53:48.610Z,15.42
2022-08-31T21:56:18.634Z,15.46
2022-08-31T21:58:48.225Z,15.49
2022-08-31T22:01:20.854Z,15.51
2022-08-31T22:03:54.500Z,15.56
2022-08-31T22:06:31.466Z,15.59
2022-08-31T22:09:09.291Z,15.63
2022-08-31T22:11:41.817Z,15.67
2022-08-31T22:14:12.665Z,15.70
2022-08-31T22:16:41.685Z,15.74
2022-08-31T22:19:13.622Z,15.77
2022-08-31T22:21:46.464Z,15.77
2022-08-31T22:24:27.396Z,15.76
2022-08-31T22:26:59.787Z,15.75
2022-08-31T22:29:32.099Z,15.75
2022-08-31T22:32:04.719Z,15.74
2022-08-31T22:34:34.025Z,15.72
2022-08-31T22:37:03.522Z,15.67
2022-08-31T22:39:33.232Z,15.63
2022-08-31T22:42:02.020Z,15.60
2022-08-31T22:44:34.613Z,15.54
2022-08-31T22:47:05.069Z,15.51
2022-08-31T22:49:34.029Z,15.49
2022-08-31T22:52:03.720Z,15.46
2022-08-31T22:54:34.876Z,15.44
2022-08-31T22:57:04.392Z,15.43
2022-08-31T22:59:33.604Z,15.43
2022-08-31T23:02:04.321Z,15.42
2022-08-31T23:04:34.975Z,15.43
2022-08-31T23:07:04.901Z,15.44
2022-08-31T23:09:34.295Z,15.46
2022-08-31T23:12:05.904Z,15.46
2022-08-31T23:14:35.432Z,15.47
2022-08-31T23:17:09.777Z,15.48
2022-08-31T23:19:41.424Z,15.49
2022-08-31T23:22:15.139Z,15.49
2022-08-31T23:24:52.097Z,15.50
2022-08-31T23:27:23.131Z,15.54
2022-08-31T23:29:59.828Z,15.57
2022-08-31T23:32:29.675Z,15.59
2022-08-31T23:34:59.108Z,15.62
2022-08-31T23:37:30.905Z,15.65
2022-08-31T23:40:01.089Z,15.68
2022-08-31T23:42:30.286Z,15.70
2022-08-31T23:45:00.503Z,15.73
2022-08-31T23:47:31.957Z,15.76
2022-08-31T23:50:05.091Z,15.77
2022-08-31T23:52:40.383Z,15.79
2022-08-31T23:55:11.333Z,15.80
2022-08-31T23:57:42.274Z,15.82
